sensor_id;sensor_type;location;lat;lon;timestamp;P1;durP1;ratioP1;P2;durP2;ratioP2
789;SDS011;378;48.844;9.156;2022-08-25T00:01:23;5.00;;;3.15;;
789;SDS011;378;48.844;9.156;2022-08-25T00:03:51;8.13;;;3.35;;
789;SDS011;378;48.844;9.156;2022-08-25T00:06:19;5.55;;;3.10;;
789;SDS011;378;48.844;9.156;2022-08-25T00:08:48;4.22;;;3.15;;
789;SDS011;378;48.844;9.156;2022-08-25T00:11:16;6.05;;;3.22;;
789;SDS011;378;48.844;9.156;2022-08-25T00:13:48;5.30;;;3.13;;
789;SDS011;378;48.844;9.156;2022-08-25T00:16:18;5.05;;;3.17;;
789;SDS011;378;48.844;9.156;2022-08-25T00:18:48;4.72;;;3.20;;
789;SDS011;378;48.844;9.156;2022-08-25T00:21:17;6.97;;;2.65;;
789;SDS011;378;48.844;9.156;2022-08-25T00:23:45;3.00;;;2.53;;
789;SDS011;378;48.844;9.156;2022-08-25T00:26:12;2.97;;;2.30;;
789;SDS011;378;48.844;9.156;2022-08-25T00:28:41;5.68;;;2.40;;
789;SDS011;378;48.844;9.156;2022-08-25T00:31:11;4.28;;;2.53;;
789;SDS011;378;48.844;9.156;2022-08-25T00:33:40;3.17;;;2.58;;
789;SDS011;378;48.844;9.156;2022-08-25T00:36:07;5.35;;;2.60;;
789;SDS011;378;48.844;9.156;2022-08-25T00:38:36;4.55;;;2.78;;
789;SDS011;378;48.844;9.156;2022-08-25T00:41:03;5.38;;;2.60;;
789;SDS011;378;48.844;9.156;2022-08-25T00:43:35;4.45;;;2.08;;
789;SDS011;378;48.844;9.156;2022-08-25T00:46:12;2.97;;;2.40;;
789;SDS011;378;48.844;9.156;2022-08-25T00:48:42;3.03;;;2.40;;
789;SDS011;378;48.844;9.156;2022-08-25T00:51:11;4.43;;;2.80;;
789;SDS011;378;48.844;9.156;2022-08-25T00:53:42;4.00;;;2.60;;
789;SDS011;378;48.844;9.156;2022-08-25T00:56:09;3.08;;;2.33;;
789;SDS011;378;48.844;9.156;2022-08-25T00:58:37;6.07;;;2.75;;
789;SDS011;378;48.844;9.156;2022-08-25T01:01:06;4.32;;;2.75;;
789;SDS011;378;48.844;9.156;2022-08-25T01:03:34;3.20;;;2.50;;
789;SDS011;378;48.844;9.156;2022-08-25T01:06:02;6.07;;;2.78;;
789;SDS011;378;48.844;9.156;2022-08-25T01:08:30;5.18;;;2.92;;
789;SDS011;378;48.844;9.156;2022-08-25T01:11:00;4.28;;;2.83;;
789;SDS011;378;48.844;9.156;2022-08-25T01:13:31;5.20;;;2.70;;
789;SDS011;378;48.844;9.156;2022-08-25T01:16:03;4.75;;;3.00;;
789;SDS011;378;48.844;9.156;2022-08-25T01:18:42;5.43;;;2.63;;
789;SDS011;378;48.844;9.156;2022-08-25T01:21:13;4.88;;;2.53;;
789;SDS011;378;48.844;9.156;2022-08-25T01:23:40;3.55;;;2.83;;
789;SDS011;378;48.844;9.156;2022-08-25T01:26:08;5.28;;;3.20;;
789;SDS011;378;48.844;9.156;2022-08-25T01:28:38;5.68;;;3.15;;
789;SDS011;378;48.844;9.156;2022-08-25T01:31:26;4.03;;;2.83;;
789;SDS011;378;48.844;9.156;2022-08-25T01:33:54;5.93;;;3.60;;
789;SDS011;378;48.844;9.156;2022-08-25T01:36:23;3.88;;;3.28;;
789;SDS011;378;48.844;9.156;2022-08-25T01:38:51;5.30;;;3.25;;
789;SDS011;378;48.844;9.156;2022-08-25T01:41:20;6.30;;;2.97;;
789;SDS011;378;48.844;9.156;2022-08-25T01:44:02;5.88;;;3.15;;
789;SDS011;378;48.844;9.156;2022-08-25T01:46:31;5.22;;;3.17;;
789;SDS011;378;48.844;9.156;2022-08-25T01:48:58;5.90;;;3.17;;
789;SDS011;378;48.844;9.156;2022-08-25T01:51:27;6.47;;;3.65;;
789;SDS011;378;48.844;9.156;2022-08-25T01:53:58;5.30;;;3.40;;
789;SDS011;378;48.844;9.156;2022-08-25T01:56:24;4.88;;;3.38;;
789;SDS011;378;48.844;9.156;2022-08-25T01:58:51;5.75;;;3.50;;
789;SDS011;378;48.844;9.156;2022-08-25T02:01:19;7.13;;;3.30;;
789;SDS011;378;48.844;9.156;2022-08-25T02:03:49;4.75;;;3.20;;
789;SDS011;378;48.844;9.156;2022-08-25T02:06:18;4.35;;;3.30;;
789;SDS011;378;48.844;9.156;2022-08-25T02:08:50;5.15;;;3.50;;
789;SDS011;378;48.844;9.156;2022-08-25T02:11:17;6.03;;;3.22;;
789;SDS011;378;48.844;9.156;2022-08-25T02:13:45;3.97;;;3.30;;
789;SDS011;378;48.844;9.156;2022-08-25T02:16:14;7.10;;;3.58;;
789;SDS011;378;48.844;9.156;2022-08-25T02:18:44;4.90;;;3.78;;
789;SDS011;378;48.844;9.156;2022-08-25T02:21:11;5.68;;;3.70;;
789;SDS011;378;48.844;9.156;2022-08-25T02:23:39;4.93;;;3.25;;
789;SDS011;378;48.844;9.156;2022-08-25T02:26:07;4.93;;;3.75;;
789;SDS011;378;48.844;9.156;2022-08-25T02:28:35;4.35;;;3.45;;
789;SDS011;378;48.844;9.156;2022-08-25T02:31:02;5.82;;;4.03;;
789;SDS011;378;48.844;9.156;2022-08-25T02:33:29;5.32;;;4.03;;
789;SDS011;378;48.844;9.156;2022-08-25T02:35:57;6.43;;;4.25;;
789;SDS011;378;48.844;9.156;2022-08-25T02:38:25;5.25;;;3.30;;
789;SDS011;378;48.844;9.156;2022-08-25T02:40:53;6.07;;;3.88;;
789;SDS011;378;48.844;9.156;2022-08-25T02:43:21;5.45;;;3.70;;
789;SDS011;378;48.844;9.156;2022-08-25T02:45:48;6.25;;;3.92;;
789;SDS011;378;48.844;9.156;2022-08-25T02:48:15;6.03;;;3.70;;
789;SDS011;378;48.844;9.156;2022-08-25T02:50:45;5.63;;;4.03;;
789;SDS011;378;48.844;9.156;2022-08-25T02:53:12;5.60;;;3.97;;
789;SDS011;378;48.844;9.156;2022-08-25T02:55:39;6.45;;;3.85;;
789;SDS011;378;48.844;9.156;2022-08-25T02:58:06;7.82;;;3.80;;
789;SDS011;378;48.844;9.156;2022-08-25T03:00:35;6.25;;;4.22;;
789;SDS011;378;48.844;9.156;2022-08-25T03:03:03;5.28;;;3.90;;
789;SDS011;378;48.844;9.156;2022-08-25T03:05:30;4.82;;;3.80;;
789;SDS011;378;48.844;9.156;2022-08-25T03:08:00;10.70;;;4.43;;
789;SDS011;378;48.844;9.156;2022-08-25T03:10:27;6.55;;;4.10;;
789;SDS011;378;48.844;9.156;2022-08-25T03:12:54;5.45;;;3.95;;
789;SDS011;378;48.844;9.156;2022-08-25T03:15:21;6.15;;;4.40;;
789;SDS011;378;48.844;9.156;2022-08-25T03:17:50;7.93;;;4.10;;
789;SDS011;378;48.844;9.156;2022-08-25T03:20:17;5.85;;;4.38;;
789;SDS011;378;48.844;9.156;2022-08-25T03:22:44;9.38;;;4.20;;
789;SDS011;378;48.844;9.156;2022-08-25T03:25:11;6.60;;;3.80;;
789;SDS011;378;48.844;9.156;2022-08-25T03:27:56;5.93;;;4.30;;
789;SDS011;378;48.844;9.156;2022-08-25T03:30:23;6.65;;;4.20;;
789;SDS011;378;48.844;9.156;2022-08-25T03:32:51;6.72;;;4.10;;
789;SDS011;378;48.844;9.156;2022-08-25T03:35:18;6.50;;;3.70;;
789;SDS011;378;48.844;9.156;2022-08-25T03:37:45;7.78;;;4.45;;
789;SDS011;378;48.844;9.156;2022-08-25T03:40:13;6.13;;;4.65;;
789;SDS011;378;48.844;9.156;2022-08-25T03:42:42;7.03;;;4.70;;
789;SDS011;378;48.844;9.156;2022-08-25T03:45:10;6.45;;;4.50;;
789;SDS011;378;48.844;9.156;2022-08-25T03:47:38;6.97;;;4.55;;
789;SDS011;378;48.844;9.156;2022-08-25T03:50:08;6.43;;;4.30;;
789;SDS011;378;48.844;9.156;2022-08-25T03:52:37;9.00;;;4.50;;
789;SDS011;378;48.844;9.156;2022-08-25T03:55:05;8.77;;;4.68;;
789;SDS011;378;48.844;9.156;2022-08-25T03:57:34;6.22;;;4.18;;
789;SDS011;378;48.844;9.156;2022-08-25T04:00:03;7.93;;;4.72;;
789;SDS011;378;48.844;9.156;2022-08-25T04:02:30;8.70;;;4.60;;
789;SDS011;378;48.844;9.156;2022-08-25T04:04:58;6.88;;;4.47;;
789;SDS011;378;48.844;9.156;2022-08-25T04:07:26;6.50;;;4.63;;
789;SDS011;378;48.844;9.156;2022-08-25T04:09:53;6.35;;;4.35;;
789;SDS011;378;48.844;9.156;2022-08-25T04:12:20;6.22;;;4.60;;
789;SDS011;378;48.844;9.156;2022-08-25T04:14:47;6.03;;;4.40;;
789;SDS011;378;48.844;9.156;2022-08-25T04:17:14;7.32;;;4.68;;
789;SDS011;378;48.844;9.156;2022-08-25T04:19:41;8.82;;;4.60;;
789;SDS011;378;48.844;9.156;2022-08-25T04:22:08;7.90;;;5.05;;
789;SDS011;378;48.844;9.156;2022-08-25T04:24:36;8.40;;;5.38;;
789;SDS011;378;48.844;9.156;2022-08-25T04:27:03;9.93;;;4.90;;
789;SDS011;378;48.844;9.156;2022-08-25T04:29:30;7.70;;;4.78;;
789;SDS011;378;48.844;9.156;2022-08-25T04:31:57;9.80;;;5.00;;
789;SDS011;378;48.844;9.156;2022-08-25T04:34:25;7.95;;;4.95;;
789;SDS011;378;48.844;9.156;2022-08-25T04:36:52;9.30;;;5.68;;
789;SDS011;378;48.844;9.156;2022-08-25T04:39:19;9.25;;;5.45;;
789;SDS011;378;48.844;9.156;2022-08-25T04:41:48;8.02;;;5.28;;
789;SDS011;378;48.844;9.156;2022-08-25T04:44:16;7.25;;;4.75;;
789;SDS011;378;48.844;9.156;2022-08-25T04:46:43;11.18;;;5.55;;
789;SDS011;378;48.844;9.156;2022-08-25T04:49:10;9.77;;;5.72;;
789;SDS011;378;48.844;9.156;2022-08-25T04:51:39;9.27;;;5.20;;
789;SDS011;378;48.844;9.156;2022-08-25T04:54:07;7.45;;;5.10;;
789;SDS011;378;48.844;9.156;2022-08-25T04:56:38;9.30;;;4.90;;
789;SDS011;378;48.844;9.156;2022-08-25T04:59:08;8.18;;;5.15;;
789;SDS011;378;48.844;9.156;2022-08-25T05:01:36;7.18;;;5.13;;
789;SDS011;378;48.844;9.156;2022-08-25T05:04:05;8.18;;;4.85;;
789;SDS011;378;48.844;9.156;2022-08-25T05:06:34;9.32;;;4.80;;
789;SDS011;378;48.844;9.156;2022-08-25T05:09:02;7.15;;;4.55;;
789;SDS011;378;48.844;9.156;2022-08-25T05:11:30;7.93;;;4.72;;
789;SDS011;378;48.844;9.156;2022-08-25T05:13:57;12.55;;;4.70;;
789;SDS011;378;48.844;9.156;2022-08-25T05:16:27;7.97;;;4.50;;
789;SDS011;378;48.844;9.156;2022-08-25T05:18:55;11.90;;;4.53;;
789;SDS011;378;48.844;9.156;2022-08-25T05:21:24;7.82;;;4.80;;
789;SDS011;378;48.844;9.156;2022-08-25T05:23:53;5.72;;;4.03;;
789;SDS011;378;48.844;9.156;2022-08-25T05:26:22;7.00;;;4.35;;
789;SDS011;378;48.844;9.156;2022-08-25T05:28:51;10.20;;;4.15;;
789;SDS011;378;48.844;9.156;2022-08-25T05:31:20;7.55;;;3.90;;
789;SDS011;378;48.844;9.156;2022-08-25T05:33:49;6.13;;;3.47;;
789;SDS011;378;48.844;9.156;2022-08-25T05:36:17;7.47;;;3.80;;
789;SDS011;378;48.844;9.156;2022-08-25T05:38:45;8.02;;;4.47;;
789;SDS011;378;48.844;9.156;2022-08-25T05:41:14;5.65;;;4.00;;
789;SDS011;378;48.844;9.156;2022-08-25T05:43:43;8.95;;;3.70;;
789;SDS011;378;48.844;9.156;2022-08-25T05:46:12;6.05;;;4.45;;
789;SDS011;378;48.844;9.156;2022-08-25T05:48:39;8.40;;;4.45;;
789;SDS011;378;48.844;9.156;2022-08-25T05:51:08;6.82;;;4.35;;
789;SDS011;378;48.844;9.156;2022-08-25T05:53:37;8.90;;;4.80;;
789;SDS011;378;48.844;9.156;2022-08-25T05:56:05;9.13;;;4.60;;
789;SDS011;378;48.844;9.156;2022-08-25T05:58:33;7.53;;;4.90;;
789;SDS011;378;48.844;9.156;2022-08-25T06:01:00;10.05;;;4.68;;
789;SDS011;378;48.844;9.156;2022-08-25T06:03:48;9.52;;;5.45;;
789;SDS011;378;48.844;9.156;2022-08-25T06:06:19;5.38;;;4.07;;
789;SDS011;378;48.844;9.156;2022-08-25T06:08:47;8.52;;;5.18;;
789;SDS011;378;48.844;9.156;2022-08-25T06:11:14;9.30;;;5.43;;
789;SDS011;378;48.844;9.156;2022-08-25T06:13:41;10.25;;;5.30;;
789;SDS011;378;48.844;9.156;2022-08-25T06:16:09;8.20;;;5.13;;
789;SDS011;378;48.844;9.156;2022-08-25T06:18:36;13.00;;;5.45;;
789;SDS011;378;48.844;9.156;2022-08-25T06:21:07;7.70;;;5.40;;
789;SDS011;378;48.844;9.156;2022-08-25T06:23:38;7.15;;;4.97;;
789;SDS011;378;48.844;9.156;2022-08-25T06:26:06;8.25;;;5.30;;
789;SDS011;378;48.844;9.156;2022-08-25T06:28:36;9.50;;;5.10;;
789;SDS011;378;48.844;9.156;2022-08-25T06:31:03;12.38;;;6.15;;
789;SDS011;378;48.844;9.156;2022-08-25T06:33:30;10.68;;;5.90;;
789;SDS011;378;48.844;9.156;2022-08-25T06:35:57;10.45;;;5.50;;
789;SDS011;378;48.844;9.156;2022-08-25T06:38:25;14.85;;;6.20;;
789;SDS011;378;48.844;9.156;2022-08-25T06:40:53;7.82;;;5.50;;
789;SDS011;378;48.844;9.156;2022-08-25T06:43:22;10.52;;;5.10;;
789;SDS011;378;48.844;9.156;2022-08-25T06:45:48;8.15;;;4.78;;
789;SDS011;378;48.844;9.156;2022-08-25T06:48:15;8.85;;;5.28;;
789;SDS011;378;48.844;9.156;2022-08-25T06:50:42;8.73;;;5.63;;
789;SDS011;378;48.844;9.156;2022-08-25T06:53:10;7.68;;;4.63;;
789;SDS011;378;48.844;9.156;2022-08-25T06:55:37;6.05;;;4.47;;
789;SDS011;378;48.844;9.156;2022-08-25T06:58:06;8.68;;;4.80;;
789;SDS011;378;48.844;9.156;2022-08-25T07:00:34;7.97;;;4.50;;
789;SDS011;378;48.844;9.156;2022-08-25T07:03:01;11.02;;;5.00;;
789;SDS011;378;48.844;9.156;2022-08-25T07:05:29;8.52;;;4.97;;
789;SDS011;378;48.844;9.156;2022-08-25T07:07:56;7.05;;;5.20;;
789;SDS011;378;48.844;9.156;2022-08-25T07:10:23;8.63;;;4.65;;
789;SDS011;378;48.844;9.156;2022-08-25T07:12:50;9.95;;;4.90;;
789;SDS011;378;48.844;9.156;2022-08-25T07:15:18;9.75;;;4.70;;
789;SDS011;378;48.844;9.156;2022-08-25T07:17:46;10.75;;;5.05;;
789;SDS011;378;48.844;9.156;2022-08-25T07:20:13;6.47;;;4.85;;
789;SDS011;378;48.844;9.156;2022-08-25T07:22:40;7.03;;;4.38;;
789;SDS011;378;48.844;9.156;2022-08-25T07:25:08;6.78;;;4.40;;
789;SDS011;378;48.844;9.156;2022-08-25T07:27:36;7.43;;;4.30;;
789;SDS011;378;48.844;9.156;2022-08-25T07:30:04;6.05;;;4.50;;
789;SDS011;378;48.844;9.156;2022-08-25T07:32:34;7.50;;;4.40;;
789;SDS011;378;48.844;9.156;2022-08-25T07:35:01;11.68;;;5.18;;
789;SDS011;378;48.844;9.156;2022-08-25T07:37:42;10.25;;;4.90;;
789;SDS011;378;48.844;9.156;2022-08-25T07:40:11;7.70;;;5.00;;
789;SDS011;378;48.844;9.156;2022-08-25T07:42:39;9.80;;;4.93;;
789;SDS011;378;48.844;9.156;2022-08-25T07:45:07;9.45;;;4.18;;
789;SDS011;378;48.844;9.156;2022-08-25T07:47:37;9.85;;;4.75;;
789;SDS011;378;48.844;9.156;2022-08-25T07:50:04;7.95;;;4.63;;
789;SDS011;378;48.844;9.156;2022-08-25T07:52:32;5.78;;;4.70;;
789;SDS011;378;48.844;9.156;2022-08-25T07:54:59;13.40;;;5.00;;
789;SDS011;378;48.844;9.156;2022-08-25T07:57:26;6.20;;;4.25;;
789;SDS011;378;48.844;9.156;2022-08-25T07:59:53;11.23;;;4.82;;
789;SDS011;378;48.844;9.156;2022-08-25T08:02:22;8.18;;;4.88;;
789;SDS011;378;48.844;9.156;2022-08-25T08:04:51;5.70;;;4.55;;
789;SDS011;378;48.844;9.156;2022-08-25T08:07:22;6.20;;;4.55;;
789;SDS011;378;48.844;9.156;2022-08-25T08:09:51;10.85;;;4.88;;
789;SDS011;378;48.844;9.156;2022-08-25T08:12:20;9.93;;;4.85;;
789;SDS011;378;48.844;9.156;2022-08-25T08:14:47;6.40;;;4.45;;
789;SDS011;378;48.844;9.156;2022-08-25T08:17:14;5.63;;;4.22;;
789;SDS011;378;48.844;9.156;2022-08-25T08:19:42;6.30;;;4.45;;
789;SDS011;378;48.844;9.156;2022-08-25T08:22:10;9.38;;;4.38;;
789;SDS011;378;48.844;9.156;2022-08-25T08:24:39;7.60;;;4.20;;
789;SDS011;378;48.844;9.156;2022-08-25T08:27:09;9.88;;;4.68;;
789;SDS011;378;48.844;9.156;2022-08-25T08:29:37;5.63;;;4.40;;
789;SDS011;378;48.844;9.156;2022-08-25T08:32:06;7.00;;;4.78;;
789;SDS011;378;48.844;9.156;2022-08-25T08:34:34;7.45;;;4.25;;
789;SDS011;378;48.844;9.156;2022-08-25T08:37:01;9.32;;;4.57;;
789;SDS011;378;48.844;9.156;2022-08-25T08:39:29;8.07;;;4.93;;
789;SDS011;378;48.844;9.156;2022-08-25T08:41:59;6.90;;;4.47;;
789;SDS011;378;48.844;9.156;2022-08-25T08:48:20;7.93;;;4.10;;
789;SDS011;378;48.844;9.156;2022-08-25T08:51:00;5.20;;;3.90;;
789;SDS011;378;48.844;9.156;2022-08-25T08:53:40;8.38;;;4.10;;
789;SDS011;378;48.844;9.156;2022-08-25T08:56:13;6.40;;;4.35;;
789;SDS011;378;48.844;9.156;2022-08-25T08:58:44;5.78;;;4.00;;
789;SDS011;378;48.844;9.156;2022-08-25T09:01:15;6.22;;;4.43;;
789;SDS011;378;48.844;9.156;2022-08-25T09:03:50;5.03;;;4.35;;
789;SDS011;378;48.844;9.156;2022-08-25T09:06:23;6.65;;;3.92;;
789;SDS011;378;48.844;9.156;2022-08-25T09:08:54;7.15;;;4.18;;
789;SDS011;378;48.844;9.156;2022-08-25T09:11:28;5.38;;;4.00;;
789;SDS011;378;48.844;9.156;2022-08-25T09:14:23;5.78;;;4.35;;
789;SDS011;378;48.844;9.156;2022-08-25T09:17:03;5.15;;;4.00;;
789;SDS011;378;48.844;9.156;2022-08-25T09:19:43;5.75;;;4.30;;
789;SDS011;378;48.844;9.156;2022-08-25T09:22:36;8.05;;;4.60;;
789;SDS011;378;48.844;9.156;2022-08-25T09:25:16;5.80;;;3.90;;
789;SDS011;378;48.844;9.156;2022-08-25T09:27:50;7.35;;;3.55;;
789;SDS011;378;48.844;9.156;2022-08-25T09:30:26;7.07;;;3.55;;
789;SDS011;378;48.844;9.156;2022-08-25T09:32:56;5.35;;;3.50;;
789;SDS011;378;48.844;9.156;2022-08-25T09:35:29;5.50;;;3.63;;
789;SDS011;378;48.844;9.156;2022-08-25T09:37:59;8.35;;;3.97;;
789;SDS011;378;48.844;9.156;2022-08-25T09:40:28;7.85;;;4.13;;
789;SDS011;378;48.844;9.156;2022-08-25T09:43:00;5.25;;;3.60;;
789;SDS011;378;48.844;9.156;2022-08-25T09:45:44;7.32;;;3.92;;
789;SDS011;378;48.844;9.156;2022-08-25T09:48:19;4.43;;;3.53;;
789;SDS011;378;48.844;9.156;2022-08-25T09:50:48;4.75;;;3.83;;
789;SDS011;378;48.844;9.156;2022-08-25T09:53:17;5.88;;;3.28;;
789;SDS011;378;48.844;9.156;2022-08-25T09:55:45;7.10;;;3.78;;
789;SDS011;378;48.844;9.156;2022-08-25T09:58:21;4.40;;;3.33;;
789;SDS011;378;48.844;9.156;2022-08-25T10:00:59;4.70;;;3.38;;
789;SDS011;378;48.844;9.156;2022-08-25T10:03:32;5.13;;;3.95;;
789;SDS011;378;48.844;9.156;2022-08-25T10:06:00;7.07;;;3.88;;
789;SDS011;378;48.844;9.156;2022-08-25T10:08:32;5.85;;;3.70;;
789;SDS011;378;48.844;9.156;2022-08-25T10:11:02;5.38;;;3.92;;
789;SDS011;378;48.844;9.156;2022-08-25T10:13:41;8.27;;;4.05;;
789;SDS011;378;48.844;9.156;2022-08-25T10:16:12;6.57;;;4.05;;
789;SDS011;378;48.844;9.156;2022-08-25T10:18:59;4.75;;;3.67;;
789;SDS011;378;48.844;9.156;2022-08-25T10:21:31;4.32;;;3.22;;
789;SDS011;378;48.844;9.156;2022-08-25T10:23:58;5.30;;;3.20;;
789;SDS011;378;48.844;9.156;2022-08-25T10:26:29;5.47;;;3.55;;
789;SDS011;378;48.844;9.156;2022-08-25T10:29:10;6.47;;;3.60;;
789;SDS011;378;48.844;9.156;2022-08-25T10:31:51;4.60;;;3.50;;
789;SDS011;378;48.844;9.156;2022-08-25T10:34:36;5.53;;;3.20;;
789;SDS011;378;48.844;9.156;2022-08-25T10:37:11;5.70;;;3.75;;
789;SDS011;378;48.844;9.156;2022-08-25T10:39:52;4.90;;;3.20;;
789;SDS011;378;48.844;9.156;2022-08-25T10:42:31;6.20;;;3.63;;
789;SDS011;378;48.844;9.156;2022-08-25T10:45:05;6.50;;;4.38;;
789;SDS011;378;48.844;9.156;2022-08-25T10:48:11;4.65;;;3.53;;
789;SDS011;378;48.844;9.156;2022-08-25T10:51:03;7.80;;;3.20;;
789;SDS011;378;48.844;9.156;2022-08-25T10:53:39;3.78;;;3.08;;
789;SDS011;378;48.844;9.156;2022-08-25T10:56:15;10.40;;;3.42;;
789;SDS011;378;48.844;9.156;2022-08-25T10:58:51;6.68;;;3.47;;
789;SDS011;378;48.844;9.156;2022-08-25T11:01:42;6.95;;;3.78;;
789;SDS011;378;48.844;9.156;2022-08-25T11:04:17;4.63;;;3.33;;
789;SDS011;378;48.844;9.156;2022-08-25T11:06:51;4.55;;;3.30;;
789;SDS011;378;48.844;9.156;2022-08-25T11:09:24;5.30;;;3.45;;
789;SDS011;378;48.844;9.156;2022-08-25T11:11:55;5.70;;;3.50;;
789;SDS011;378;48.844;9.156;2022-08-25T11:14:27;6.43;;;3.65;;
789;SDS011;378;48.844;9.156;2022-08-25T11:17:00;6.18;;;3.53;;
789;SDS011;378;48.844;9.156;2022-08-25T11:19:30;7.90;;;3.58;;
789;SDS011;378;48.844;9.156;2022-08-25T11:22:03;3.65;;;3.25;;
789;SDS011;378;48.844;9.156;2022-08-25T11:24:46;7.93;;;3.95;;
789;SDS011;378;48.844;9.156;2022-08-25T11:27:22;4.18;;;3.55;;
789;SDS011;378;48.844;9.156;2022-08-25T11:29:58;4.95;;;3.80;;
789;SDS011;378;48.844;9.156;2022-08-25T11:32:32;4.60;;;3.28;;
789;SDS011;378;48.844;9.156;2022-08-25T11:35:00;6.78;;;2.90;;
789;SDS011;378;48.844;9.156;2022-08-25T11:37:29;4.65;;;3.45;;
789;SDS011;378;48.844;9.156;2022-08-25T11:40:01;4.35;;;3.20;;
789;SDS011;378;48.844;9.156;2022-08-25T11:42:39;4.10;;;2.90;;
789;SDS011;378;48.844;9.156;2022-08-25T11:45:27;4.03;;;2.97;;
789;SDS011;378;48.844;9.156;2022-08-25T11:48:18;4.20;;;2.88;;
789;SDS011;378;48.844;9.156;2022-08-25T11:50:54;4.57;;;2.90;;
789;SDS011;378;48.844;9.156;2022-08-25T11:53:25;4.78;;;2.60;;
789;SDS011;378;48.844;9.156;2022-08-25T11:55:54;3.42;;;2.92;;
789;SDS011;378;48.844;9.156;2022-08-25T11:58:30;3.75;;;2.70;;
789;SDS011;378;48.844;9.156;2022-08-25T12:07:26;5.13;;;2.97;;
789;SDS011;378;48.844;9.156;2022-08-25T12:10:09;3.33;;;2.60;;
789;SDS011;378;48.844;9.156;2022-08-25T12:12:59;4.97;;;3.08;;
789;SDS011;378;48.844;9.156;2022-08-25T12:15:32;4.22;;;2.78;;
789;SDS011;378;48.844;9.156;2022-08-25T12:21:10;2.75;;;2.47;;
789;SDS011;378;48.844;9.156;2022-08-25T12:23:43;5.28;;;2.72;;
789;SDS011;378;48.844;9.156;2022-08-25T12:26:15;5.90;;;2.72;;
789;SDS011;378;48.844;9.156;2022-08-25T12:28:55;4.88;;;2.78;;
789;SDS011;378;48.844;9.156;2022-08-25T12:31:30;7.10;;;2.60;;
789;SDS011;378;48.844;9.156;2022-08-25T12:34:20;2.92;;;2.60;;
789;SDS011;378;48.844;9.156;2022-08-25T12:37:11;5.18;;;2.45;;
789;SDS011;378;48.844;9.156;2022-08-25T12:39:44;3.13;;;2.42;;
789;SDS011;378;48.844;9.156;2022-08-25T12:42:21;5.15;;;2.70;;
789;SDS011;378;48.844;9.156;2022-08-25T12:45:07;3.75;;;2.42;;
789;SDS011;378;48.844;9.156;2022-08-25T12:47:55;3.17;;;2.60;;
789;SDS011;378;48.844;9.156;2022-08-25T12:51:01;4.03;;;2.60;;
789;SDS011;378;48.844;9.156;2022-08-25T12:53:33;2.88;;;2.28;;
789;SDS011;378;48.844;9.156;2022-08-25T12:56:02;3.47;;;2.60;;
789;SDS011;378;48.844;9.156;2022-08-25T12:58:34;3.00;;;2.50;;
789;SDS011;378;48.844;9.156;2022-08-25T13:01:16;4.20;;;2.58;;
789;SDS011;378;48.844;9.156;2022-08-25T13:07:06;5.05;;;2.50;;
789;SDS011;378;48.844;9.156;2022-08-25T13:09:59;4.60;;;2.40;;
789;SDS011;378;48.844;9.156;2022-08-25T13:12:45;4.15;;;2.40;;
789;SDS011;378;48.844;9.156;2022-08-25T13:15:24;3.22;;;2.50;;
789;SDS011;378;48.844;9.156;2022-08-25T13:17:54;5.72;;;2.40;;
789;SDS011;378;48.844;9.156;2022-08-25T13:20:22;5.53;;;2.47;;
789;SDS011;378;48.844;9.156;2022-08-25T13:22:51;2.92;;;2.45;;
789;SDS011;378;48.844;9.156;2022-08-25T13:25:21;5.85;;;2.38;;
789;SDS011;378;48.844;9.156;2022-08-25T13:27:49;3.95;;;2.30;;
789;SDS011;378;48.844;9.156;2022-08-25T13:30:21;5.75;;;2.40;;
789;SDS011;378;48.844;9.156;2022-08-25T13:32:51;3.00;;;2.47;;
789;SDS011;378;48.844;9.156;2022-08-25T13:35:19;5.63;;;2.28;;
789;SDS011;378;48.844;9.156;2022-08-25T13:37:49;5.10;;;2.50;;
789;SDS011;378;48.844;9.156;2022-08-25T13:40:22;4.40;;;2.50;;
789;SDS011;378;48.844;9.156;2022-08-25T13:42:51;5.38;;;2.28;;
789;SDS011;378;48.844;9.156;2022-08-25T13:45:21;3.42;;;2.10;;
789;SDS011;378;48.844;9.156;2022-08-25T13:47:49;2.55;;;2.15;;
789;SDS011;378;48.844;9.156;2022-08-25T13:50:26;6.57;;;1.95;;
789;SDS011;378;48.844;9.156;2022-08-25T13:52:56;4.30;;;2.10;;
789;SDS011;378;48.844;9.156;2022-08-25T13:55:27;3.30;;;2.60;;
789;SDS011;378;48.844;9.156;2022-08-25T13:57:58;3.45;;;2.67;;
789;SDS011;378;48.844;9.156;2022-08-25T14:00:27;4.72;;;2.20;;
789;SDS011;378;48.844;9.156;2022-08-25T14:02:57;3.28;;;2.85;;
789;SDS011;378;48.844;9.156;2022-08-25T14:05:30;5.15;;;2.17;;
789;SDS011;378;48.844;9.156;2022-08-25T14:08:00;4.25;;;2.38;;
789;SDS011;378;48.844;9.156;2022-08-25T14:10:33;2.67;;;2.42;;
789;SDS011;378;48.844;9.156;2022-08-25T14:13:10;4.15;;;2.63;;
789;SDS011;378;48.844;9.156;2022-08-25T14:15:42;2.92;;;2.28;;
789;SDS011;378;48.844;9.156;2022-08-25T14:18:12;4.05;;;2.50;;
789;SDS011;378;48.844;9.156;2022-08-25T14:20:44;3.85;;;2.05;;
789;SDS011;378;48.844;9.156;2022-08-25T14:23:15;2.38;;;1.90;;
789;SDS011;378;48.844;9.156;2022-08-25T14:25:45;3.60;;;1.80;;
789;SDS011;378;48.844;9.156;2022-08-25T14:28:13;3.65;;;1.90;;
789;SDS011;378;48.844;9.156;2022-08-25T14:30:43;3.00;;;2.00;;
789;SDS011;378;48.844;9.156;2022-08-25T14:33:14;2.80;;;2.08;;
789;SDS011;378;48.844;9.156;2022-08-25T14:35:45;3.70;;;2.17;;
789;SDS011;378;48.844;9.156;2022-08-25T14:38:13;5.88;;;2.20;;
789;SDS011;378;48.844;9.156;2022-08-25T14:40:45;3.55;;;2.20;;
789;SDS011;378;48.844;9.156;2022-08-25T14:43:13;2.83;;;2.13;;
789;SDS011;378;48.844;9.156;2022-08-25T14:45:41;3.17;;;2.28;;
789;SDS011;378;48.844;9.156;2022-08-25T14:48:12;3.83;;;2.20;;
789;SDS011;378;48.844;9.156;2022-08-25T14:50:43;3.75;;;2.05;;
789;SDS011;378;48.844;9.156;2022-08-25T14:53:10;7.85;;;2.40;;
789;SDS011;378;48.844;9.156;2022-08-25T14:55:37;4.28;;;2.47;;
789;SDS011;378;48.844;9.156;2022-08-25T14:58:05;3.95;;;2.25;;
789;SDS011;378;48.844;9.156;2022-08-25T15:00:33;3.53;;;2.58;;
789;SDS011;378;48.844;9.156;2022-08-25T15:03:01;3.20;;;2.20;;
789;SDS011;378;48.844;9.156;2022-08-25T15:05:29;3.88;;;2.45;;
789;SDS011;378;48.844;9.156;2022-08-25T15:07:56;5.32;;;2.00;;
789;SDS011;378;48.844;9.156;2022-08-25T15:10:40;3.08;;;2.05;;
789;SDS011;378;48.844;9.156;2022-08-25T15:13:09;4.60;;;2.42;;
789;SDS011;378;48.844;9.156;2022-08-25T15:15:37;4.53;;;1.90;;
789;SDS011;378;48.844;9.156;2022-08-25T15:18:08;4.63;;;1.98;;
789;SDS011;378;48.844;9.156;2022-08-25T15:20:35;2.20;;;1.95;;
789;SDS011;378;48.844;9.156;2022-08-25T15:23:02;2.55;;;2.00;;
789;SDS011;378;48.844;9.156;2022-08-25T15:25:29;5.72;;;2.22;;
789;SDS011;378;48.844;9.156;2022-08-25T15:27:56;3.67;;;2.20;;
789;SDS011;378;48.844;9.156;2022-08-25T15:30:24;6.10;;;2.20;;
789;SDS011;378;48.844;9.156;2022-08-25T15:32:51;3.65;;;2.10;;
789;SDS011;378;48.844;9.156;2022-08-25T15:35:18;5.00;;;2.20;;
789;SDS011;378;48.844;9.156;2022-08-25T15:37:45;3.25;;;2.03;;
789;SDS011;378;48.844;9.156;2022-08-25T15:40:13;2.03;;;1.80;;
789;SDS011;378;48.844;9.156;2022-08-25T15:42:40;3.20;;;2.17;;
789;SDS011;378;48.844;9.156;2022-08-25T15:45:08;2.22;;;2.00;;
789;SDS011;378;48.844;9.156;2022-08-25T15:47:36;5.40;;;1.98;;
789;SDS011;378;48.844;9.156;2022-08-25T15:50:05;3.90;;;2.30;;
789;SDS011;378;48.844;9.156;2022-08-25T15:52:33;3.83;;;2.28;;
789;SDS011;378;48.844;9.156;2022-08-25T15:55:00;4.22;;;2.10;;
789;SDS011;378;48.844;9.156;2022-08-25T15:57:27;6.65;;;2.17;;
789;SDS011;378;48.844;9.156;2022-08-25T15:59:54;3.13;;;2.00;;
789;SDS011;378;48.844;9.156;2022-08-25T16:02:21;5.18;;;2.40;;
789;SDS011;378;48.844;9.156;2022-08-25T16:04:49;3.77;;;2.10;;
789;SDS011;378;48.844;9.156;2022-08-25T16:07:17;2.63;;;2.17;;
789;SDS011;378;48.844;9.156;2022-08-25T16:09:44;6.18;;;2.20;;
789;SDS011;378;48.844;9.156;2022-08-25T16:12:11;3.92;;;2.30;;
789;SDS011;378;48.844;9.156;2022-08-25T16:14:38;2.30;;;2.10;;
789;SDS011;378;48.844;9.156;2022-08-25T16:17:05;2.50;;;1.98;;
789;SDS011;378;48.844;9.156;2022-08-25T16:19:32;3.17;;;2.08;;
789;SDS011;378;48.844;9.156;2022-08-25T16:22:01;5.00;;;2.00;;
789;SDS011;378;48.844;9.156;2022-08-25T16:24:27;6.13;;;2.20;;